createdAt,value
2023-02-27T00:00:14.824Z,2.20
2023-02-27T00:02:43.873Z,2.20
2023-02-27T00:05:13.420Z,2.17
2023-02-27T00:07:42.531Z,2.10
2023-02-27T00:10:14.391Z,2.23
2023-02-27T00:12:43.285Z,2.70
2023-02-27T00:15:14.184Z,1.80
2023-02-27T00:17:43.301Z,2.00
2023-02-27T00:20:14.329Z,2.23
2023-02-27T00:22:43.526Z,2.37
2023-02-27T00:25:14.202Z,2.50
2023-02-27T00:27:43.091Z,1.93
2023-02-27T00:30:13.508Z,2.20
2023-02-27T00:32:42.130Z,2.40
2023-02-27T00:35:13.348Z,2.30
2023-02-27T00:37:41.910Z,2.27
2023-02-27T00:40:14.110Z,2.73
2023-02-27T00:42:42.562Z,1.80
2023-02-27T00:45:11.796Z,2.53
2023-02-27T00:47:40.264Z,2.20
2023-02-27T00:50:09.580Z,3.23
2023-02-27T00:52:40.948Z,2.73
2023-02-27T00:55:11.012Z,2.67
2023-02-27T00:57:41.087Z,2.13
2023-02-27T01:00:12.657Z,2.40
2023-02-27T01:02:41.115Z,2.40
2023-02-27T01:05:10.609Z,2.50
2023-02-27T01:07:39.364Z,2.20
2023-02-27T01:10:12.700Z,2.17
2023-02-27T01:12:42.968Z,2.50
2023-02-27T01:15:12.361Z,2.60
2023-02-27T01:17:41.315Z,2.30
2023-02-27T01:20:11.406Z,2.67
2023-02-27T01:22:40.287Z,2.10
2023-02-27T01:25:09.765Z,2.07
2023-02-27T01:27:42.253Z,2.30
2023-02-27T01:30:12.776Z,2.23
2023-02-27T01:32:41.272Z,2.83
2023-02-27T01:35:10.625Z,2.37
2023-02-27T01:37:41.701Z,3.43
2023-02-27T01:40:12.179Z,3.77
2023-02-27T01:42:40.557Z,3.03
2023-02-27T01:45:27.701Z,2.70
2023-02-27T01:48:04.660Z,2.90
2023-02-27T01:50:37.994Z,2.93
2023-02-27T01:53:08.245Z,2.90
2023-02-27T01:55:39.916Z,2.60
2023-02-27T01:58:11.153Z,2.73
2023-02-27T02:00:41.535Z,2.60
2023-02-27T02:03:18.476Z,2.80
2023-02-27T02:05:48.212Z,2.23
2023-02-27T02:08:20.510Z,2.27
2023-02-27T02:10:51.466Z,2.40
2023-02-27T02:13:21.653Z,2.20
2023-02-27T02:16:01.667Z,2.60
2023-02-27T02:18:41.744Z,2.50
2023-02-27T02:21:44.195Z,2.47
2023-02-27T02:24:49.803Z,2.53
2023-02-27T02:27:33.313Z,2.43
2023-02-27T02:30:37.394Z,2.17
2023-02-27T02:33:35.524Z,2.47
2023-02-27T02:36:42.584Z,2.40
2023-02-27T02:39:32.108Z,2.77
2023-02-27T02:42:06.005Z,2.53
2023-02-27T02:44:53.094Z,2.53
2023-02-27T02:47:32.514Z,2.00
2023-02-27T02:50:07.967Z,2.30
2023-02-27T02:52:47.786Z,2.67
2023-02-27T02:55:24.268Z,2.67
2023-02-27T02:57:59.799Z,3.27
2023-02-27T03:00:33.044Z,2.80
2023-02-27T03:03:10.241Z,2.33
2023-02-27T03:05:43.266Z,2.93
2023-02-27T03:08:15.711Z,2.70
2023-02-27T03:10:49.871Z,2.67
2023-02-27T03:13:25.865Z,3.13
2023-02-27T03:16:00.513Z,2.30
2023-02-27T03:18:34.471Z,3.20
2023-02-27T03:21:08.869Z,2.57
2023-02-27T03:23:43.907Z,2.83
2023-02-27T03:26:18.559Z,2.93
2023-02-27T03:28:57.116Z,3.07
2023-02-27T03:31:32.903Z,3.13
2023-02-27T03:34:07.013Z,3.13
2023-02-27T03:36:44.522Z,3.40
2023-02-27T03:39:23.284Z,2.90
2023-02-27T03:41:59.445Z,3.57
2023-02-27T03:44:54.598Z,3.77
2023-02-27T03:47:23.388Z,3.70
2023-02-27T03:49:52.338Z,3.23
2023-02-27T03:52:22.076Z,3.40
2023-02-27T03:54:57.872Z,3.10
2023-02-27T03:57:28.258Z,2.67
2023-02-27T03:59:56.968Z,3.03
2023-02-27T04:02:26.931Z,3.40
2023-02-27T04:04:55.685Z,2.90
2023-02-27T04:07:55.413Z,3.13
2023-02-27T04:10:46.551Z,3.47
2023-02-27T04:13:41.115Z,3.20
2023-02-27T04:16:49.718Z,2.70
2023-02-27T04:19:40.604Z,2.90
2023-02-27T04:22:18.606Z,3.57
2023-02-27T04:24:57.724Z,3.40
2023-02-27T04:27:37.211Z,3.57
2023-02-27T04:30:21.630Z,3.10
2023-02-27T04:32:56.475Z,3.83
2023-02-27T04:35:32.810Z,3.73
2023-02-27T04:38:07.570Z,3.23
2023-02-27T04:40:41.881Z,3.03
2023-02-27T04:43:12.364Z,3.50
2023-02-27T04:45:45.239Z,3.60
2023-02-27T04:48:19.813Z,3.30
2023-02-27T04:50:53.496Z,3.73
2023-02-27T04:53:27.868Z,4.17
2023-02-27T04:56:02.805Z,3.73
2023-02-27T04:58:35.235Z,3.93
2023-02-27T05:01:09.174Z,3.90
2023-02-27T05:03:42.689Z,3.77
2023-02-27T05:06:12.270Z,3.47
2023-02-27T05:08:46.339Z,3.23
2023-02-27T05:11:20.210Z,4.60
2023-02-27T05:13:53.222Z,3.93
2023-02-27T05:16:28.091Z,3.97
2023-02-27T05:18:57.059Z,3.43
2023-02-27T05:21:31.896Z,3.87
2023-02-27T05:24:09.947Z,3.40
2023-02-27T05:27:01.577Z,3.57
2023-02-27T05:29:37.570Z,3.30
2023-02-27T05:32:17.612Z,4.03
2023-02-27T05:34:53.074Z,3.50
2023-02-27T05:37:26.250Z,4.43
2023-02-27T05:39:54.677Z,4.60
2023-02-27T05:42:28.818Z,4.10
2023-02-27T05:45:04.550Z,3.93
2023-02-27T05:47:38.201Z,3.63
2023-02-27T05:50:11.546Z,4.07
2023-02-27T05:52:42.138Z,4.90
2023-02-27T05:55:18.890Z,4.60
2023-02-27T05:57:51.929Z,3.87
2023-02-27T06:00:25.017Z,5.70
2023-02-27T06:02:55.149Z,4.00
2023-02-27T06:05:26.413Z,5.13
2023-02-27T06:07:55.084Z,4.93
2023-02-27T06:10:23.626Z,6.13
2023-02-27T06:12:51.931Z,7.97
2023-02-27T06:15:20.544Z,5.30
2023-02-27T06:17:49.016Z,5.60
2023-02-27T06:20:19.497Z,4.83
2023-02-27T06:22:47.960Z,5.97
2023-02-27T06:25:16.788Z,6.47
2023-02-27T06:27:45.449Z,6.10
2023-02-27T06:30:16.934Z,6.67
2023-02-27T06:32:45.289Z,6.40
2023-02-27T06:35:13.848Z,6.00
2023-02-27T06:37:44.019Z,5.43
2023-02-27T06:40:12.768Z,5.93
2023-02-27T06:42:42.052Z,5.37
2023-02-27T06:45:11.800Z,5.67
2023-02-27T06:47:41.282Z,5.67
2023-02-27T06:50:12.695Z,5.67
2023-02-27T06:52:41.791Z,5.80
2023-02-27T06:55:12.724Z,5.87
2023-02-27T06:57:41.038Z,5.53
2023-02-27T07:00:12.153Z,7.23
2023-02-27T07:02:40.975Z,6.10
2023-02-27T07:05:11.594Z,6.43
2023-02-27T07:07:40.323Z,5.77
2023-02-27T07:10:13.270Z,5.47
2023-02-27T07:12:42.220Z,5.10
2023-02-27T07:15:11.475Z,5.33
2023-02-27T07:17:39.952Z,6.17
2023-02-27T07:20:11.126Z,4.83
2023-02-27T07:22:40.056Z,5.87
2023-02-27T07:25:09.540Z,6.60
2023-02-27T07:27:39.310Z,6.80
2023-02-27T07:30:09.184Z,7.03
2023-02-27T07:32:37.593Z,8.17
2023-02-27T07:35:07.173Z,7.57
2023-02-27T07:37:35.640Z,8.10
2023-02-27T07:40:07.956Z,14.00
2023-02-27T07:42:36.888Z,35.10
2023-02-27T07:45:07.894Z,78.70
2023-02-27T07:47:36.523Z,31.03
2023-02-27T07:50:05.589Z,9.47
2023-02-27T07:52:34.169Z,9.50
2023-02-27T07:55:02.570Z,7.87
2023-02-27T07:57:30.916Z,8.17
2023-02-27T08:00:00.217Z,7.97
2023-02-27T08:02:30.109Z,7.93
2023-02-27T08:04:58.809Z,7.43
2023-02-27T08:07:27.337Z,7.10
2023-02-27T08:09:55.915Z,7.40
2023-02-27T08:12:24.593Z,8.37
2023-02-27T08:14:53.030Z,7.40
2023-02-27T08:17:21.914Z,8.07
2023-02-27T08:19:51.715Z,7.40
2023-02-27T08:22:20.096Z,7.53
2023-02-27T08:24:48.523Z,7.43
2023-02-27T08:27:17.065Z,7.27
2023-02-27T08:29:46.072Z,6.17
2023-02-27T08:32:14.688Z,6.53
2023-02-27T08:34:43.243Z,5.37
2023-02-27T08:37:13.102Z,7.27
2023-02-27T08:39:41.560Z,6.57
2023-02-27T08:42:10.743Z,7.00
2023-02-27T08:44:39.285Z,6.73
2023-02-27T08:47:07.786Z,6.20
2023-02-27T08:49:36.220Z,7.20
2023-02-27T08:52:05.629Z,6.10
2023-02-27T08:54:35.365Z,6.20
2023-02-27T08:57:04.201Z,5.37
2023-02-27T08:59:32.885Z,5.70
2023-02-27T09:02:01.209Z,5.17
2023-02-27T09:04:29.873Z,6.17
2023-02-27T09:06:58.718Z,5.43
2023-02-27T09:09:27.547Z,5.10
2023-02-27T09:11:57.353Z,5.60
2023-02-27T09:14:25.773Z,5.40
2023-02-27T09:16:54.285Z,5.23
2023-02-27T09:19:22.811Z,4.87
2023-02-27T09:21:51.301Z,4.50
2023-02-27T09:24:20.921Z,4.73
2023-02-27T09:26:50.065Z,3.70
2023-02-27T09:29:19.971Z,4.37
2023-02-27T09:31:48.720Z,4.57
2023-02-27T09:34:17.237Z,5.00
2023-02-27T09:36:45.712Z,4.47
2023-02-27T09:39:14.241Z,4.57
2023-02-27T09:41:57.531Z,3.70
2023-02-27T09:44:46.164Z,3.80
2023-02-27T09:47:20.106Z,3.37
2023-02-27T09:49:59.362Z,3.50
2023-02-27T09:52:28.671Z,3.77
2023-02-27T09:54:57.443Z,3.50
2023-02-27T09:57:38.878Z,3.97
2023-02-27T10:00:21.473Z,3.40
2023-02-27T10:02:57.356Z,3.60
2023-02-27T10:05:36.893Z,3.97
2023-02-27T10:08:14.708Z,2.67
2023-02-27T10:10:51.789Z,3.17
2023-02-27T10:13:37.978Z,3.53
2023-02-27T10:16:12.416Z,2.67
2023-02-27T10:18:49.571Z,2.63
2023-02-27T10:21:22.498Z,4.27
2023-02-27T10:23:57.110Z,3.20
2023-02-27T10:26:30.101Z,2.13
2023-02-27T10:28:59.701Z,1.87
2023-02-27T10:31:34.771Z,2.37
2023-02-27T10:34:03.721Z,2.10
2023-02-27T10:36:34.708Z,2.10
2023-02-27T10:39:07.911Z,1.87
2023-02-27T10:41:37.526Z,1.87
2023-02-27T10:44:06.374Z,2.00
2023-02-27T10:46:38.403Z,2.23
2023-02-27T10:49:18.889Z,2.80
2023-02-27T10:51:48.682Z,2.60
2023-02-27T10:54:24.730Z,2.17
2023-02-27T10:56:55.794Z,2.17
2023-02-27T10:59:27.082Z,2.90
2023-02-27T11:01:58.851Z,2.00
2023-02-27T11:04:32.616Z,2.20
2023-02-27T11:07:04.530Z,1.97
2023-02-27T11:09:34.314Z,2.23
2023-02-27T11:12:13.769Z,1.77
2023-02-27T11:14:53.551Z,2.17
2023-02-27T11:17:29.624Z,2.33
2023-02-27T11:19:59.144Z,2.17
2023-02-27T11:22:29.912Z,2.50
2023-02-27T11:25:23.435Z,1.87
2023-02-27T11:27:52.728Z,2.20
2023-02-27T11:30:24.952Z,1.77
2023-02-27T11:32:57.475Z,2.00
2023-02-27T11:35:30.283Z,2.13
2023-02-27T11:38:02.399Z,1.57
2023-02-27T11:40:39.545Z,1.70
2023-02-27T11:43:18.450Z,1.73
2023-02-27T11:46:09.876Z,2.10
2023-02-27T11:48:48.262Z,1.70
2023-02-27T11:51:30.747Z,1.80
2023-02-27T11:54:16.240Z,2.07
2023-02-27T11:56:47.593Z,2.10
2023-02-27T11:59:27.842Z,2.50
2023-02-27T12:02:03.102Z,2.07
2023-02-27T12:04:42.766Z,1.47
2023-02-27T12:07:17.900Z,1.97
2023-02-27T12:09:53.201Z,1.77
2023-02-27T12:12:25.666Z,1.90
2023-02-27T12:15:06.639Z,1.97
2023-02-27T12:17:41.689Z,1.47
2023-02-27T12:20:28.417Z,1.67
2023-02-27T12:22:57.098Z,1.70
2023-02-27T12:25:37.484Z,1.57
2023-02-27T12:28:16.544Z,1.80
2023-02-27T12:30:52.997Z,1.60
2023-02-27T12:33:30.554Z,1.87
2023-02-27T12:36:04.200Z,1.70
2023-02-27T12:38:35.685Z,1.23
2023-02-27T12:41:23.483Z,2.10
2023-02-27T12:44:03.687Z,1.90
2023-02-27T12:46:44.045Z,2.13
2023-02-27T12:49:22.126Z,1.67
2023-02-27T12:52:02.315Z,1.40
2023-02-27T12:54:46.561Z,1.53
2023-02-27T12:57:28.485Z,1.60
2023-02-27T13:00:10.257Z,1.57
2023-02-27T13:02:50.985Z,1.90
2023-02-27T13:05:48.467Z,2.43
2023-02-27T13:08:46.979Z,2.47
2023-02-27T13:11:25.496Z,2.50
2023-02-27T13:13:58.147Z,2.03
2023-02-27T13:16:33.571Z,2.40
2023-02-27T13:19:07.503Z,1.70
2023-02-27T13:21:40.914Z,1.53
2023-02-27T13:24:25.872Z,1.80
2023-02-27T13:27:01.815Z,1.90
2023-02-27T13:29:39.678Z,1.80
2023-02-27T13:32:36.492Z,1.60
2023-02-27T13:35:22.616Z,1.70
2023-02-27T13:37:53.140Z,1.70
2023-02-27T13:40:36.735Z,1.57
2023-02-27T13:43:27.367Z,1.90
2023-02-27T13:46:00.224Z,2.60
2023-02-27T13:48:46.435Z,1.90
2023-02-27T13:51:45.860Z,1.80
2023-02-27T13:54:32.352Z,2.00
2023-02-27T13:57:22.859Z,2.20
2023-02-27T14:00:21.811Z,1.20
2023-02-27T14:03:00.332Z,1.47
2023-02-27T14:05:34.963Z,1.43
2023-02-27T14:08:16.177Z,1.77
2023-02-27T14:10:56.730Z,1.27
2023-02-27T14:14:05.631Z,1.57
2023-02-27T14:16:57.843Z,1.70
2023-02-27T14:19:50.551Z,1.87
2023-02-27T14:22:37.866Z,1.23
2023-02-27T14:25:23.169Z,1.37
2023-02-27T14:27:57.053Z,1.57
2023-02-27T14:30:31.430Z,1.67
2023-02-27T14:33:06.051Z,1.37
2023-02-27T14:35:37.378Z,1.30
2023-02-27T14:38:12.293Z,1.47
2023-02-27T14:40:52.970Z,2.03
2023-02-27T14:43:34.673Z,2.13
2023-02-27T14:46:14.081Z,2.10
2023-02-27T14:48:42.893Z,1.60
2023-02-27T14:51:12.262Z,1.67
2023-02-27T14:53:41.122Z,1.30
2023-02-27T14:56:19.835Z,2.20
2023-02-27T14:59:03.383Z,1.67
2023-02-27T15:01:38.061Z,1.67
2023-02-27T15:04:08.747Z,1.77
2023-02-27T15:06:46.255Z,2.60
2023-02-27T15:09:24.007Z,1.53
2023-02-27T15:12:03.651Z,1.63
2023-02-27T15:14:36.605Z,1.60
2023-02-27T15:17:17.277Z,1.87
2023-02-27T15:19:49.788Z,1.53
2023-02-27T15:22:37.560Z,2.33
2023-02-27T15:25:08.495Z,1.60
2023-02-27T15:27:38.585Z,2.03
2023-02-27T15:30:09.796Z,1.80
2023-02-27T15:32:43.149Z,1.50
2023-02-27T15:35:17.555Z,1.37
2023-02-27T15:37:52.019Z,1.50
2023-02-27T15:40:23.728Z,1.80
2023-02-27T15:42:53.807Z,1.40
2023-02-27T15:45:25.924Z,1.83
2023-02-27T15:47:56.436Z,2.10
2023-02-27T15:50:28.927Z,1.93
2023-02-27T15:53:04.405Z,1.77
2023-02-27T15:55:37.681Z,1.90
2023-02-27T15:58:19.866Z,1.83
2023-02-27T16:00:48.673Z,1.93
2023-02-27T16:03:23.969Z,1.80
2023-02-27T16:05:54.248Z,2.10
2023-02-27T16:08:22.889Z,2.20
2023-02-27T16:10:52.347Z,2.67
2023-02-27T16:13:22.086Z,2.40
2023-02-27T16:16:00.567Z,1.93
2023-02-27T16:18:34.906Z,1.67
2023-02-27T16:21:12.461Z,2.13
2023-02-27T16:23:41.462Z,2.10
2023-02-27T16:26:33.184Z,1.97
2023-02-27T16:29:04.040Z,1.93
2023-02-27T16:31:34.908Z,1.90
2023-02-27T16:34:16.082Z,1.93
2023-02-27T16:36:54.806Z,2.17
2023-02-27T16:39:23.328Z,2.60
2023-02-27T16:41:53.638Z,2.50
2023-02-27T16:44:24.411Z,1.70
2023-02-27T16:46:53.382Z,2.20
2023-02-27T16:49:25.413Z,2.07
2023-02-27T16:51:53.981Z,2.40
2023-02-27T16:54:22.560Z,2.10
2023-02-27T16:56:52.063Z,2.13
2023-02-27T16:59:31.652Z,2.73
2023-02-27T17:02:01.322Z,2.97
2023-02-27T17:04:31.741Z,1.97
2023-02-27T17:07:02.471Z,2.33
2023-02-27T17:09:31.820Z,2.00
2023-02-27T17:12:00.162Z,2.00
2023-02-27T17:14:28.563Z,2.23
2023-02-27T17:16:59.334Z,2.60
2023-02-27T17:19:28.040Z,2.10
2023-02-27T17:21:58.056Z,2.27
2023-02-27T17:24:26.507Z,2.37
2023-02-27T17:26:55.049Z,2.57
2023-02-27T17:29:24.713Z,2.27
2023-02-27T17:31:53.223Z,2.67
2023-02-27T17:34:21.928Z,2.77
2023-02-27T17:36:50.891Z,2.10
2023-02-27T17:39:20.667Z,2.77
2023-02-27T17:41:49.241Z,2.00
2023-02-27T17:44:17.782Z,2.20
2023-02-27T17:46:46.215Z,2.60
2023-02-27T17:49:14.580Z,2.50
2023-02-27T17:51:43.265Z,2.23
2023-02-27T17:54:11.743Z,2.17
2023-02-27T17:56:42.021Z,1.80
2023-02-27T17:59:11.322Z,2.23
2023-02-27T18:01:39.778Z,2.47
2023-02-27T18:04:11.319Z,1.83
2023-02-27T18:06:39.774Z,1.90
2023-02-27T18:09:08.343Z,2.37
2023-02-27T18:11:37.596Z,2.43
2023-02-27T18:14:08.268Z,2.10
2023-02-27T18:16:36.978Z,2.30
2023-02-27T18:19:07.054Z,2.37
2023-02-27T18:21:36.004Z,2.37
2023-02-27T18:24:05.042Z,1.93
2023-02-27T18:26:34.630Z,2.43
2023-02-27T18:29:07.185Z,2.53
2023-02-27T18:31:39.404Z,2.63
2023-02-27T18:34:08.568Z,2.70
2023-02-27T18:36:37.185Z,2.73
2023-02-27T18:39:07.428Z,2.10
2023-02-27T18:41:36.305Z,2.43
2023-02-27T18:44:04.928Z,2.40
2023-02-27T18:46:33.867Z,2.70
2023-02-27T18:49:03.868Z,2.90
2023-02-27T18:51:32.788Z,2.93
2023-02-27T18:54:01.520Z,3.20
2023-02-27T18:56:32.991Z,2.57
2023-02-27T18:59:05.375Z,3.13
2023-02-27T19:01:35.925Z,2.60
2023-02-27T19:04:07.627Z,3.20
2023-02-27T19:06:39.068Z,2.43
2023-02-27T19:09:08.127Z,2.67
2023-02-27T19:11:37.130Z,2.47
2023-02-27T19:14:07.779Z,3.27
2023-02-27T19:16:36.713Z,2.60
2023-02-27T19:19:09.961Z,3.40
2023-02-27T19:21:38.698Z,2.70
2023-02-27T19:24:08.220Z,2.80
2023-02-27T19:26:36.836Z,2.60
2023-02-27T19:29:07.303Z,2.60
2023-02-27T19:31:36.181Z,2.70
2023-02-27T19:34:06.132Z,3.03
2023-02-27T19:36:36.201Z,3.40
2023-02-27T19:39:05.643Z,2.83
2023-02-27T19:41:34.662Z,3.97
2023-02-27T19:44:03.229Z,3.30
2023-02-27T19:46:34.778Z,3.40
2023-02-27T19:49:05.897Z,3.07
2023-02-27T19:51:35.937Z,3.10
2023-02-27T19:54:04.832Z,2.93
2023-02-27T19:56:33.705Z,3.90
2023-02-27T19:59:02.622Z,5.17
2023-02-27T20:01:33.219Z,6.93
2023-02-27T20:04:02.780Z,5.07
2023-02-27T20:06:34.295Z,5.17
2023-02-27T20:09:04.263Z,4.97
2023-02-27T20:11:33.354Z,4.83
2023-02-27T20:14:02.504Z,4.53
2023-02-27T20:16:34.627Z,5.43
2023-02-27T20:19:04.215Z,4.93
2023-02-27T20:21:33.947Z,4.60
2023-02-27T20:24:04.136Z,5.07
2023-02-27T20:26:35.403Z,4.73
2023-02-27T20:29:07.210Z,5.70
2023-02-27T20:31:37.701Z,4.10
2023-02-27T20:34:07.754Z,5.03
2023-02-27T20:36:37.029Z,5.23
2023-02-27T20:39:07.895Z,5.73
2023-02-27T20:41:37.194Z,5.43
2023-02-27T20:44:08.253Z,5.60
2023-02-27T20:46:37.873Z,5.33
2023-02-27T20:49:07.780Z,5.03
2023-02-27T20:51:38.230Z,5.20
2023-02-27T20:54:10.540Z,5.20
2023-02-27T20:56:42.021Z,4.70
2023-02-27T20:59:13.560Z,5.20
2023-02-27T21:01:42.868Z,5.10
2023-02-27T21:04:11.568Z,4.90
2023-02-27T21:06:40.327Z,4.37
2023-02-27T21:09:11.012Z,4.73
2023-02-27T21:11:39.503Z,5.77
2023-02-27T21:14:10.285Z,4.97
2023-02-27T21:16:39.793Z,5.60
2023-02-27T21:19:09.061Z,5.00
2023-02-27T21:21:39.336Z,5.07
2023-02-27T21:24:10.040Z,4.77
2023-02-27T21:26:40.275Z,5.37
2023-02-27T21:29:10.863Z,6.30
2023-02-27T21:31:41.849Z,5.77
2023-02-27T21:34:14.261Z,5.60
2023-02-27T21:36:44.349Z,5.27
2023-02-27T21:39:16.643Z,5.20
2023-02-27T21:41:46.133Z,4.87
2023-02-27T21:44:17.179Z,5.00
2023-02-27T21:46:46.406Z,5.60
2023-02-27T21:49:18.312Z,5.57
2023-02-27T21:51:47.353Z,4.03
2023-02-27T21:54:18.550Z,4.97
2023-02-27T21:56:49.725Z,5.23
2023-02-27T21:59:20.297Z,4.80
2023-02-27T22:01:49.158Z,5.07
2023-02-27T22:04:19.022Z,5.50
2023-02-27T22:06:48.626Z,5.80
2023-02-27T22:09:20.625Z,6.67
2023-02-27T22:11:51.928Z,5.13
2023-02-27T22:14:20.609Z,4.83
2023-02-27T22:16:49.275Z,5.33
2023-02-27T22:19:20.933Z,5.33
2023-02-27T22:21:49.938Z,5.40
2023-02-27T22:24:20.634Z,4.93
2023-02-27T22:26:50.356Z,5.63
2023-02-27T22:29:19.185Z,5.87
2023-02-27T22:31:47.714Z,5.73
2023-02-27T22:34:19.411Z,5.03
2023-02-27T22:36:52.436Z,5.70
2023-02-27T22:39:22.576Z,5.43
2023-02-27T22:41:51.146Z,5.77
2023-02-27T22:44:19.733Z,6.03
2023-02-27T22:46:50.505Z,6.27
2023-02-27T22:49:20.859Z,6.67
2023-02-27T22:51:51.004Z,6.43
2023-02-27T22:54:21.403Z,6.40
2023-02-27T22:56:52.850Z,5.97
2023-02-27T22:59:21.931Z,6.10
2023-02-27T23:01:51.525Z,5.90
2023-02-27T23:04:22.185Z,5.40
2023-02-27T23:06:52.839Z,6.20
2023-02-27T23:09:24.194Z,5.53
2023-02-27T23:11:54.148Z,6.23
2023-02-27T23:14:23.369Z,5.60
2023-02-27T23:16:51.969Z,5.33
2023-02-27T23:19:21.864Z,5.77
2023-02-27T23:21:50.670Z,5.77
2023-02-27T23:24:20.698Z,5.40
2023-02-27T23:26:51.783Z,6.17
2023-02-27T23:29:21.889Z,5.20
2023-02-27T23:31:50.815Z,5.80
2023-02-27T23:34:19.336Z,5.70
2023-02-27T23:36:47.804Z,5.40
2023-02-27T23:39:16.532Z,5.20
2023-02-27T23:41:44.953Z,5.97
2023-02-27T23:44:13.408Z,5.20
2023-02-27T23:46:43.266Z,5.70
2023-02-27T23:49:12.390Z,6.20
2023-02-27T23:51:40.881Z,5.43
2023-02-27T23:54:10.573Z,5.93
2023-02-27T23:56:39.040Z,5.73
2023-02-27T23:59:08.435Z,5.30
